createdAt,value
2022-12-05T00:01:30.985Z,101220.81
2022-12-05T00:04:02.353Z,101218.13
2022-12-05T00:06:31.132Z,101211.78
2022-12-05T00:08:59.250Z,101218.75
2022-12-05T00:11:29.988Z,101218.22
2022-12-05T00:14:00.326Z,101215.44
2022-12-05T00:16:30.247Z,101216.16
2022-12-05T00:19:01.038Z,101216.44
2022-12-05T00:21:31.678Z,101220.06
2022-12-05T00:24:00.681Z,101213.50
2022-12-05T00:26:28.550Z,101214.22
2022-12-05T00:28:55.381Z,101217.78
2022-12-05T00:31:24.462Z,101218.00
2022-12-05T00:33:52.619Z,101213.59
2022-12-05T00:36:20.347Z,101221.66
2022-12-05T00:38:47.988Z,101225.06
2022-12-05T00:41:22.949Z,101212.41
2022-12-05T00:43:50.180Z,101209.34
2022-12-05T00:46:21.442Z,101208.97
2022-12-05T00:48:48.877Z,101212.66
2022-12-05T00:51:27.428Z,101209.22
2022-12-05T00:53:57.732Z,101204.69
2022-12-05T00:56:26.630Z,101212.53
2022-12-05T00:58:55.324Z,101220.69
2022-12-05T01:01:33.235Z,101221.31
2022-12-05T01:04:04.454Z,101213.75
2022-12-05T01:06:31.405Z,101212.53
2022-12-05T01:08:59.169Z,101224.00
2022-12-05T01:11:27.265Z,101224.84
2022-12-05T01:13:55.196Z,101227.53
2022-12-05T01:16:30.812Z,101218.75
2022-12-05T01:18:59.367Z,101227.66
2022-12-05T01:21:26.984Z,101220.31
2022-12-05T01:23:53.876Z,101230.09
2022-12-05T01:26:22.861Z,101237.66
2022-12-05T01:28:51.815Z,101233.41
2022-12-05T01:31:32.906Z,101242.31
2022-12-05T01:34:01.929Z,101240.34
2022-12-05T01:36:29.793Z,101241.81
2022-12-05T01:38:57.687Z,101239.84
2022-12-05T01:41:41.879Z,101243.28
2022-12-05T01:44:28.776Z,101242.19
2022-12-05T01:46:57.202Z,101246.47
2022-12-05T01:49:37.954Z,101241.09
2022-12-05T01:52:19.459Z,101246.13
2022-12-05T01:54:48.566Z,101251.59
2022-12-05T01:57:15.998Z,101251.72
2022-12-05T01:59:48.837Z,101258.94
2022-12-05T02:02:16.192Z,101253.28
2022-12-05T02:05:26.105Z,101253.56
2022-12-05T02:07:53.569Z,101256.72
2022-12-05T02:10:20.606Z,101265.03
2022-12-05T02:12:49.694Z,101246.97
2022-12-05T02:15:30.693Z,101240.75
2022-12-05T02:18:22.371Z,101251.22
2022-12-05T02:20:55.025Z,101251.59
2022-12-05T02:23:43.376Z,101252.69
2022-12-05T02:27:20.245Z,101247.06
2022-12-05T02:30:11.489Z,101258.44
2022-12-05T02:33:04.911Z,101260.41
2022-12-05T02:36:04.106Z,101255.25
2022-12-05T02:38:44.518Z,101253.28
2022-12-05T02:41:23.043Z,101256.72
2022-12-05T02:44:08.503Z,101258.56
2022-12-05T02:46:39.489Z,101251.13
2022-12-05T02:49:11.502Z,101251.34
2022-12-05T02:51:52.906Z,101265.53
2022-12-05T02:54:35.550Z,101262.97
2022-12-05T02:57:03.177Z,101259.16
2022-12-05T02:59:29.940Z,101261.84
2022-12-05T03:01:57.282Z,101257.84
2022-12-05T03:04:26.006Z,101263.44
2022-12-05T03:07:04.612Z,101252.59
2022-12-05T03:09:38.096Z,101259.16
2022-12-05T03:12:19.234Z,101266.28
2022-12-05T03:15:06.948Z,101265.06
2022-12-05T03:17:57.711Z,101269.19
2022-12-05T03:20:34.805Z,101264.78
2022-12-05T03:23:21.687Z,101274.06
2022-12-05T03:26:17.990Z,101263.94
2022-12-05T03:29:12.770Z,101267.72
2022-12-05T03:31:56.499Z,101268.59
2022-12-05T03:34:35.108Z,101270.66
2022-12-05T03:37:10.974Z,101269.81
2022-12-05T03:39:43.910Z,101274.06
2022-12-05T03:42:14.787Z,101279.22
2022-12-05T03:44:58.201Z,101275.78
2022-12-05T03:47:55.157Z,101278.38
2022-12-05T03:50:27.671Z,101281.38
2022-12-05T03:53:19.729Z,101277.75
2022-12-05T03:55:58.285Z,101281.16
2022-12-05T03:58:32.985Z,101277.50
2022-12-05T04:01:04.275Z,101276.63
2022-12-05T04:03:42.117Z,101276.75
2022-12-05T04:06:27.971Z,101276.63
2022-12-05T04:09:01.341Z,101283.00
2022-12-05T04:11:33.807Z,101283.13
2022-12-05T04:14:08.246Z,101290.19
2022-12-05T04:17:03.191Z,101294.72
2022-12-05T04:20:06.201Z,101291.91
2022-12-05T04:22:34.503Z,101295.44
2022-12-05T04:25:22.349Z,101304.34
2022-12-05T04:28:27.666Z,101300.47
2022-12-05T04:31:33.797Z,101304.50
2022-12-05T04:34:05.400Z,101300.91
2022-12-05T04:36:45.087Z,101306.06
2022-12-05T04:39:24.071Z,101307.75
2022-12-05T04:41:57.613Z,101305.44
2022-12-05T04:44:31.577Z,101303.72
2022-12-05T04:47:03.855Z,101301.53
2022-12-05T04:49:33.259Z,101307.75
2022-12-05T04:52:05.225Z,101314.75
2022-12-05T04:54:38.118Z,101320.47
2022-12-05T04:57:21.595Z,101321.97
2022-12-05T04:59:48.876Z,101321.47
2022-12-05T05:02:29.022Z,101320.22
2022-12-05T05:04:58.855Z,101323.75
2022-12-05T05:07:25.757Z,101314.84
2022-12-05T05:09:52.699Z,101315.81
2022-12-05T05:12:19.556Z,101320.47
2022-12-05T05:14:46.565Z,101324.75
2022-12-05T05:17:13.353Z,101320.59
2022-12-05T05:19:40.119Z,101321.19
2022-12-05T05:22:07.040Z,101327.56
2022-12-05T05:24:33.832Z,101321.19
2022-12-05T05:27:00.581Z,101323.88
2022-12-05T05:29:27.376Z,101329.50
2022-12-05T05:31:54.176Z,101312.91
2022-12-05T05:34:20.942Z,101326.56
2022-12-05T05:36:53.065Z,101322.06
2022-12-05T05:39:20.186Z,101331.19
2022-12-05T05:41:46.969Z,101323.03
2022-12-05T05:44:13.792Z,101329.25
2022-12-05T05:46:40.581Z,101320.47
2022-12-05T05:49:07.366Z,101329.72
2022-12-05T05:51:34.895Z,101330.47
2022-12-05T05:54:01.725Z,101332.94
2022-12-05T05:56:29.692Z,101332.41
2022-12-05T05:59:03.022Z,101331.47
2022-12-05T06:01:30.682Z,101345.22
2022-12-05T06:03:58.812Z,101345.84
2022-12-05T06:06:26.533Z,101350.38
2022-12-05T06:08:55.117Z,101344.88
2022-12-05T06:11:26.989Z,101345.38
2022-12-05T06:13:56.503Z,101346.34
2022-12-05T06:16:24.324Z,101355.03
2022-12-05T06:18:52.225Z,101358.06
2022-12-05T06:21:20.071Z,101360.28
2022-12-05T06:23:47.272Z,101366.75
2022-12-05T06:26:18.223Z,101362.09
2022-12-05T06:28:45.950Z,101370.53
2022-12-05T06:31:20.420Z,101372.84
2022-12-05T06:33:47.851Z,101362.97
2022-12-05T06:36:19.533Z,101362.09
2022-12-05T06:38:46.769Z,101367.72
2022-12-05T06:41:20.484Z,101374.16
2022-12-05T06:43:47.761Z,101365.88
2022-12-05T06:46:16.141Z,101370.31
2022-12-05T06:48:43.071Z,101374.78
2022-12-05T06:51:15.512Z,101378.38
2022-12-05T06:53:42.885Z,101373.94
2022-12-05T06:56:19.741Z,101363.44
2022-12-05T06:58:50.114Z,101373.00
2022-12-05T07:01:39.435Z,101374.69
2022-12-05T07:04:24.723Z,101381.03
2022-12-05T07:06:54.541Z,101381.28
2022-12-05T07:09:46.110Z,101381.91
2022-12-05T07:12:15.754Z,101395.66
2022-12-05T07:14:48.724Z,101396.41
2022-12-05T07:17:20.054Z,101405.66
2022-12-05T07:19:51.912Z,101405.41
2022-12-05T07:22:21.756Z,101393.56
2022-12-05T07:24:49.131Z,101399.19
2022-12-05T07:27:18.478Z,101394.03
2022-12-05T07:29:47.610Z,101403.91
2022-12-05T07:32:14.785Z,101404.13
2022-12-05T07:34:42.387Z,101407.81
2022-12-05T07:37:09.153Z,101414.34
2022-12-05T07:39:36.023Z,101410.72
2022-12-05T07:42:02.813Z,101413.41
2022-12-05T07:44:30.431Z,101413.63
2022-12-05T07:46:58.100Z,101411.66
2022-12-05T07:49:25.126Z,101409.97
2022-12-05T07:51:53.000Z,101415.56
2022-12-05T07:54:19.756Z,101420.72
2022-12-05T07:56:48.082Z,101421.56
2022-12-05T07:59:15.181Z,101419.00
2022-12-05T08:01:42.004Z,101417.03
2022-12-05T08:04:14.849Z,101412.41
2022-12-05T08:06:42.203Z,101419.63
2022-12-05T08:09:09.050Z,101422.56
2022-12-05T08:11:36.343Z,101426.81
2022-12-05T08:14:05.768Z,101430.13
2022-12-05T08:16:33.390Z,101434.88
2022-12-05T08:19:03.974Z,101435.25
2022-12-05T08:21:31.725Z,101434.41
2022-12-05T08:23:58.985Z,101431.84
2022-12-05T08:26:31.137Z,101437.09
2022-12-05T08:29:05.718Z,101443.00
2022-12-05T08:31:36.156Z,101443.22
2022-12-05T08:34:03.013Z,101444.59
2022-12-05T08:36:31.458Z,101451.16
2022-12-05T08:39:01.932Z,101447.50
2022-12-05T08:41:30.456Z,101446.41
2022-12-05T08:44:03.384Z,101464.00
2022-12-05T08:46:32.378Z,101462.16
2022-12-05T08:48:59.512Z,101473.06
2022-12-05T08:51:26.420Z,101475.38
2022-12-05T08:53:53.685Z,101465.28
2022-12-05T08:56:27.244Z,101480.75
2022-12-05T08:59:01.223Z,101470.84
2022-12-05T09:01:33.542Z,101489.34
2022-12-05T09:04:01.793Z,101490.91
2022-12-05T09:06:29.919Z,101490.19
2022-12-05T09:09:00.512Z,101493.38
2022-12-05T09:11:32.806Z,101495.09
2022-12-05T09:14:01.637Z,101501.09
2022-12-05T09:16:37.006Z,101502.09
2022-12-05T09:19:16.162Z,101500.97
2022-12-05T09:21:44.721Z,101507.72
2022-12-05T09:24:13.631Z,101512.25
2022-12-05T09:26:41.650Z,101510.06
2022-12-05T09:29:15.756Z,101514.47
2022-12-05T09:31:43.954Z,101514.47
2022-12-05T09:34:10.881Z,101513.03
2022-12-05T09:36:37.880Z,101508.91
2022-12-05T09:39:06.652Z,101514.03
2022-12-05T09:42:10.139Z,101514.03
2022-12-05T09:45:07.802Z,101519.81
2022-12-05T09:47:43.449Z,101509.06
2022-12-05T09:50:30.766Z,101518.72
2022-12-05T09:53:09.629Z,101511.16
2022-12-05T09:55:54.049Z,101520.81
2022-12-05T09:58:45.349Z,101525.13
2022-12-05T10:01:35.850Z,101518.53
2022-12-05T10:04:24.219Z,101522.91
2022-12-05T10:07:16.397Z,101524.16
2022-12-05T10:10:02.734Z,101529.78
2022-12-05T10:12:44.094Z,101525.91
2022-12-05T10:15:34.237Z,101525.53
2022-12-05T10:18:09.971Z,101539.19
2022-12-05T10:20:51.032Z,101526.78
2022-12-05T10:23:56.057Z,101524.09
2022-12-05T10:26:16.554Z,101531.88
2022-12-05T10:29:09.537Z,101528.13
2022-12-05T10:31:39.500Z,101524.09
2022-12-05T10:34:21.788Z,101527.88
2022-12-05T10:37:20.753Z,101524.47
2022-12-05T10:39:49.611Z,101523.13
2022-12-05T10:42:32.657Z,101527.66
2022-12-05T10:45:05.908Z,101526.19
2022-12-05T10:47:34.205Z,101524.28
2022-12-05T10:50:28.973Z,101522.19
2022-12-05T10:52:58.132Z,101520.34
2022-12-05T10:55:34.115Z,101523.31
2022-12-05T10:58:24.475Z,101523.28
2022-12-05T11:00:55.617Z,101520.38
2022-12-05T11:03:34.811Z,101525.25
2022-12-05T11:06:33.127Z,101531.75
2022-12-05T11:09:27.920Z,101520.47
2022-12-05T11:12:04.356Z,101528.66
2022-12-05T11:14:33.623Z,101521.22
2022-12-05T11:17:03.034Z,101523.06
2022-12-05T11:19:36.514Z,101523.78
2022-12-05T11:22:05.023Z,101523.56
2022-12-05T11:24:38.291Z,101522.56
2022-12-05T11:27:17.291Z,101524.50
2022-12-05T11:30:16.793Z,101520.59
2022-12-05T11:32:43.534Z,101520.75
2022-12-05T11:35:13.378Z,101521.47
2022-12-05T11:37:58.405Z,101531.00
2022-12-05T11:40:40.684Z,101531.84
2022-12-05T11:43:44.417Z,101531.25
2022-12-05T11:46:41.515Z,101532.13
2022-12-05T11:49:32.959Z,101526.59
2022-12-05T11:52:41.138Z,101528.19
2022-12-05T11:55:16.104Z,101529.78
2022-12-05T11:58:10.515Z,101530.88
2022-12-05T12:01:24.048Z,101535.41
2022-12-05T12:04:21.918Z,101528.94
2022-12-05T12:07:13.383Z,101523.28
2022-12-05T12:09:54.833Z,101527.69
2022-12-05T12:12:45.342Z,101515.69
2022-12-05T12:15:46.810Z,101521.81
2022-12-05T12:18:42.614Z,101520.09
2022-12-05T12:21:19.738Z,101516.41
2022-12-05T12:24:21.026Z,101518.47
2022-12-05T12:27:32.361Z,101521.28
2022-12-05T12:31:00.218Z,101516.19
2022-12-05T12:33:35.250Z,101517.88
2022-12-05T12:36:10.900Z,101514.72
2022-12-05T12:39:05.502Z,101512.75
2022-12-05T12:42:05.498Z,101515.44
2022-12-05T12:44:53.933Z,101507.47
2022-12-05T12:47:46.496Z,101512.75
2022-12-05T12:50:18.893Z,101517.03
2022-12-05T12:53:16.445Z,101508.13
2022-12-05T12:56:04.837Z,101507.38
2022-12-05T12:59:32.981Z,101511.53
2022-12-05T13:02:25.577Z,101509.81
2022-12-05T13:05:03.500Z,101520.56
2022-12-05T13:07:42.919Z,101514.97
2022-12-05T13:10:37.890Z,101509.06
2022-12-05T13:13:07.034Z,101522.41
2022-12-05T13:15:41.166Z,101518.47
2022-12-05T13:18:17.440Z,101524.59
2022-12-05T13:20:48.627Z,101533.66
2022-12-05T13:23:20.165Z,101529.88
2022-12-05T13:25:47.861Z,101531.59
2022-12-05T13:28:54.256Z,101527.28
2022-12-05T13:31:40.291Z,101525.84
2022-12-05T13:34:41.702Z,101519.59
2022-12-05T13:37:45.574Z,101524.97
2022-12-05T13:40:54.401Z,101517.03
2022-12-05T13:43:27.340Z,101514.44
2022-12-05T13:46:10.435Z,101509.56
2022-12-05T13:48:41.998Z,101504.19
2022-12-05T13:51:21.822Z,101510.41
2022-12-05T13:54:01.168Z,101505.41
2022-12-05T13:56:51.267Z,101504.69
2022-12-05T14:00:09.457Z,101497.56
2022-12-05T14:02:42.319Z,101509.34
2022-12-05T14:05:21.755Z,101505.78
2022-12-05T14:07:58.480Z,101499.41
2022-12-05T14:10:30.978Z,101501.28
2022-12-05T14:13:23.772Z,101510.06
2022-12-05T14:15:52.214Z,101502.97
2022-12-05T14:18:53.333Z,101504.94
2022-12-05T14:21:45.946Z,101497.13
2022-12-05T14:24:31.187Z,101502.97
2022-12-05T14:27:19.141Z,101501.28
2022-12-05T14:30:19.886Z,101498.56
2022-12-05T14:32:46.958Z,101504.81
2022-12-05T14:35:30.299Z,101505.41
2022-12-05T14:38:05.494Z,101504.69
2022-12-05T14:40:40.949Z,101505.16
2022-12-05T14:43:27.570Z,101508.13
2022-12-05T14:46:03.000Z,101510.19
2022-12-05T14:48:47.401Z,101509.19
2022-12-05T14:51:33.143Z,101510.44
2022-12-05T14:54:04.825Z,101517.66
2022-12-05T14:56:35.559Z,101512.28
2022-12-05T14:59:16.650Z,101511.53
2022-12-05T15:02:04.099Z,101518.91
2022-12-05T15:04:46.722Z,101514.84
2022-12-05T15:07:26.667Z,101521.22
2022-12-05T15:10:01.448Z,101517.91
2022-12-05T15:12:37.147Z,101522.19
2022-12-05T15:15:13.920Z,101523.06
2022-12-05T15:17:46.916Z,101520.59
2022-12-05T15:20:22.785Z,101526.13
2022-12-05T15:22:49.945Z,101525.50
2022-12-05T15:25:32.089Z,101527.31
2022-12-05T15:28:18.681Z,101525.63
2022-12-05T15:30:55.910Z,101532.13
2022-12-05T15:33:25.205Z,101526.59
2022-12-05T15:35:55.622Z,101525.41
2022-12-05T15:38:30.315Z,101528.66
2022-12-05T15:40:57.100Z,101529.91
2022-12-05T15:43:34.091Z,101531.50
2022-12-05T15:46:24.203Z,101539.09
2022-12-05T15:48:53.389Z,101539.19
2022-12-05T15:51:27.478Z,101541.16
2022-12-05T15:54:05.436Z,101536.34
2022-12-05T15:57:05.731Z,101536.34
2022-12-05T15:59:46.228Z,101544.53
2022-12-05T16:02:26.280Z,101540.50
2022-12-05T16:04:57.231Z,101539.75
2022-12-05T16:07:27.682Z,101540.75
2022-12-05T16:09:58.649Z,101547.22
2022-12-05T16:12:39.458Z,101550.00
2022-12-05T16:15:15.516Z,101551.34
2022-12-05T16:17:54.123Z,101555.03
2022-12-05T16:20:32.032Z,101554.03
2022-12-05T16:23:04.673Z,101563.59
2022-12-05T16:25:37.497Z,101563.00
2022-12-05T16:28:11.401Z,101567.25
2022-12-05T16:30:38.608Z,101564.56
2022-12-05T16:33:16.478Z,101566.63
2022-12-05T16:35:45.937Z,101571.78
2022-12-05T16:38:29.927Z,101572.63
2022-12-05T16:41:00.590Z,101571.69
2022-12-05T16:43:33.376Z,101579.75
2022-12-05T16:46:13.259Z,101576.06
2022-12-05T16:48:44.664Z,101576.06
2022-12-05T16:51:11.383Z,101579.75
2022-12-05T16:53:39.620Z,101582.44
2022-12-05T16:56:11.171Z,101594.16
2022-12-05T16:58:37.985Z,101596.13
2022-12-05T17:01:07.098Z,101596.34
2022-12-05T17:03:35.887Z,101590.97
2022-12-05T17:06:03.765Z,101595.25
2022-12-05T17:08:30.640Z,101603.44
2022-12-05T17:10:58.164Z,101601.72
2022-12-05T17:13:25.446Z,101599.66
2022-12-05T17:15:52.321Z,101607.09
2022-12-05T17:18:25.287Z,101600.97
2022-12-05T17:20:56.876Z,101605.16
2022-12-05T17:23:24.812Z,101611.53
2022-12-05T17:25:55.153Z,101606.13
2022-12-05T17:28:23.047Z,101604.19
2022-12-05T17:30:51.012Z,101609.06
2022-12-05T17:33:19.855Z,101619.81
2022-12-05T17:35:47.256Z,101610.66
2022-12-05T17:38:14.457Z,101612.47
2022-12-05T17:40:41.939Z,101613.59
2022-12-05T17:43:15.928Z,101619.91
2022-12-05T17:45:44.410Z,101621.53
2022-12-05T17:48:15.638Z,101620.53
2022-12-05T17:50:46.171Z,101615.06
2022-12-05T17:53:19.117Z,101616.16
2022-12-05T17:55:48.874Z,101628.88
2022-12-05T17:58:17.327Z,101623.13
2022-12-05T18:00:45.909Z,101621.75
2022-12-05T18:03:15.984Z,101628.88
2022-12-05T18:05:43.024Z,101623.59
2022-12-05T18:08:11.051Z,101631.66
2022-12-05T18:10:43.123Z,101635.31
2022-12-05T18:13:10.839Z,101639.34
2022-12-05T18:15:42.674Z,101632.78
2022-12-05T18:18:18.156Z,101634.69
2022-12-05T18:20:45.144Z,101640.69
2022-12-05T18:23:12.394Z,101634.69
2022-12-05T18:25:40.365Z,101643.75
2022-12-05T18:28:07.502Z,101640.06
2022-12-05T18:30:34.477Z,101645.91
2022-12-05T18:33:01.277Z,101646.44
2022-12-05T18:35:40.786Z,101650.09
2022-12-05T18:38:11.494Z,101653.25
2022-12-05T18:40:38.572Z,101651.41
2022-12-05T18:43:05.967Z,101654.97
2022-12-05T18:45:32.935Z,101656.47
2022-12-05T18:48:16.364Z,101653.25
2022-12-05T18:50:47.076Z,101662.16
2022-12-05T18:53:13.880Z,101662.53
2022-12-05T18:58:28.282Z,101673.38
2022-12-05T19:00:55.099Z,101669.00
2022-12-05T19:03:22.159Z,101672.53
2022-12-05T19:05:48.919Z,101674.38
2022-12-05T19:08:15.895Z,101678.13
2022-12-05T19:10:42.712Z,101673.84
2022-12-05T19:13:09.565Z,101670.53
2022-12-05T19:15:36.316Z,101676.22
2022-12-05T19:18:03.574Z,101680.88
2022-12-05T19:20:30.314Z,101682.44
2022-12-05T19:23:00.829Z,101678.34
2022-12-05T19:25:30.304Z,101677.72
2022-12-05T19:27:57.126Z,101689.97
2022-12-05T19:30:23.987Z,101691.53
2022-12-05T19:32:50.737Z,101690.00
2022-12-05T19:35:17.581Z,101686.16
2022-12-05T19:37:44.318Z,101690.16
2022-12-05T19:40:11.997Z,101694.13
2022-12-05T19:42:38.807Z,101695.44
2022-12-05T19:45:09.543Z,101702.09
2022-12-05T19:47:38.334Z,101697.03
2022-12-05T19:50:05.840Z,101702.63
2022-12-05T19:52:32.577Z,101698.34
2022-12-05T19:54:59.693Z,101699.63
2022-12-05T19:57:31.050Z,101697.16
2022-12-05T19:59:58.568Z,101691.03
2022-12-05T20:02:25.949Z,101691.22
2022-12-05T20:04:53.242Z,101693.81
2022-12-05T20:07:20.014Z,101692.22
2022-12-05T20:09:46.826Z,101696.59
2022-12-05T20:12:13.658Z,101695.84
2022-12-05T20:14:40.432Z,101689.63
2022-12-05T20:17:07.293Z,101695.66
2022-12-05T20:19:34.161Z,101688.53
2022-12-05T20:22:00.973Z,101688.66
2022-12-05T20:24:28.213Z,101687.78
2022-12-05T20:26:54.989Z,101691.34
2022-12-05T20:29:21.877Z,101689.72
2022-12-05T20:31:52.789Z,101687.16
2022-12-05T20:34:19.549Z,101689.28
2022-12-05T20:36:46.477Z,101695.44
2022-12-05T20:39:16.383Z,101697.47
2022-12-05T20:41:44.376Z,101688.44
2022-12-05T20:44:15.296Z,101695.31
2022-12-05T20:46:42.246Z,101695.09
2022-12-05T20:49:09.811Z,101693.25
2022-12-05T20:51:36.634Z,101693.16
2022-12-05T20:54:05.714Z,101699.63
2022-12-05T20:56:34.700Z,101693.81
2022-12-05T20:59:05.971Z,101688.34
2022-12-05T21:01:36.188Z,101691.88
2022-12-05T21:04:06.376Z,101697.16
2022-12-05T21:06:36.665Z,101683.81
2022-12-05T21:09:14.915Z,101693.28
2022-12-05T21:11:43.097Z,101687.06
2022-12-05T21:14:09.936Z,101685.03
2022-12-05T21:16:37.155Z,101681.25
2022-12-05T21:19:03.983Z,101683.09
2022-12-05T21:21:32.084Z,101683.09
2022-12-05T21:24:02.801Z,101686.41
2022-12-05T21:26:33.119Z,101678.16
2022-12-05T21:29:01.949Z,101682.22
2022-12-05T21:31:32.683Z,101684.69
2022-12-05T21:34:06.757Z,101693.59
2022-12-05T21:36:36.355Z,101687.47
2022-12-05T21:39:05.871Z,101690.69
2022-12-05T21:41:33.843Z,101693.94
2022-12-05T21:44:01.652Z,101683.84
2022-12-05T21:46:28.877Z,101692.44
2022-12-05T21:48:55.749Z,101686.72
2022-12-05T21:51:23.360Z,101693.38
2022-12-05T21:53:51.274Z,101687.25
2022-12-05T21:56:23.164Z,101685.78
2022-12-05T21:58:50.613Z,101681.91
2022-12-05T22:01:25.134Z,101685.78
2022-12-05T22:03:54.218Z,101683.19
2022-12-05T22:06:21.304Z,101684.47
2022-12-05T22:08:48.288Z,101691.13
2022-12-05T22:11:19.662Z,101692.09
2022-12-05T22:13:47.665Z,101701.22
2022-12-05T22:16:16.171Z,101702.06
2022-12-05T22:18:43.060Z,101699.28
2022-12-05T22:21:17.171Z,101700.25
2022-12-05T22:23:44.463Z,101699.94
2022-12-05T22:26:22.608Z,101700.78
2022-12-05T22:28:58.987Z,101696.16
2022-12-05T22:31:26.700Z,101704.00
2022-12-05T22:33:53.493Z,101703.25
2022-12-05T22:36:20.878Z,101705.50
2022-12-05T22:38:48.662Z,101714.22
2022-12-05T22:41:24.767Z,101715.06
2022-12-05T22:44:00.306Z,101712.38
2022-12-05T22:46:29.201Z,101713.38
2022-12-05T22:48:56.704Z,101711.31
2022-12-05T22:51:23.840Z,101713.13
2022-12-05T22:53:52.549Z,101704.47
2022-12-05T22:56:21.270Z,101716.69
2022-12-05T22:58:48.184Z,101706.16
2022-12-05T23:01:14.908Z,101707.91
2022-12-05T23:03:43.445Z,101705.31
2022-12-05T23:06:13.150Z,101710.69
2022-12-05T23:08:42.618Z,101705.31
2022-12-05T23:11:11.033Z,101707.75
2022-12-05T23:13:39.946Z,101702.28
2022-12-05T23:16:16.625Z,101710.56
2022-12-05T23:18:47.014Z,101708.94
2022-12-05T23:21:33.679Z,101710.88
2022-12-05T23:24:04.008Z,101710.88
2022-12-05T23:26:46.446Z,101706.69
2022-12-05T23:29:14.920Z,101713.16
2022-12-05T23:31:42.779Z,101715.09
2022-12-05T23:34:10.530Z,101711.75
2022-12-05T23:36:37.677Z,101719.81
2022-12-05T23:39:05.611Z,101720.09
2022-12-05T23:41:32.636Z,101724.44
2022-12-05T23:43:59.976Z,101730.66
2022-12-05T23:46:28.425Z,101726.13
2022-12-05T23:48:56.126Z,101728.59
2022-12-05T23:51:26.902Z,101732.47
2022-12-05T23:54:00.486Z,101732.25
2022-12-05T23:56:31.677Z,101720.56
2022-12-05T23:58:58.945Z,101723.34
